Time;durP1;ratioP1;P1;durP2;ratioP2;P2;SDS_P1;SDS_P2;PMS_P1;PMS_P2;Temp;Humidity;BMP_temperature;BMP_pressure;BME280_temperature;BME280_humidity;BME280_pressure;Samples;Min_cycle;Max_cycle;Signal;HPM_P1;HPM_P2
2023/09/01 00:02:17;;;;;;;6.20;3.88;;;;;;;12.15;100.00;100959.25;6324397;28;20052;-70
2023/09/01 00:05:18;;;;;;;5.35;3.80;;;;;;;12.13;100.00;100956.72;6327967;28;20052;-70
2023/09/01 00:08:20;;;;;;;9.95;4.18;;;;;;;12.11;100.00;100955.94;6329118;28;20048;-70
2023/09/01 00:11:23;;;;;;;6.28;3.25;;;;;;;12.11;100.00;100960.38;6329198;28;20054;-71
2023/09/01 00:14:24;;;;;;;8.48;3.58;;;;;;;12.07;100.00;100964.09;6328594;28;20470;-70
2023/09/01 00:17:25;;;;;;;5.45;3.50;;;;;;;12.03;100.00;100958.16;6310810;28;20068;-71
2023/09/01 00:20:27;;;;;;;7.30;4.32;;;;;;;12.03;100.00;100955.50;6327432;28;20055;-71
2023/09/01 00:23:28;;;;;;;5.70;3.42;;;;;;;12.02;100.00;100955.63;6327650;28;20048;-71
2023/09/01 00:26:31;;;;;;;8.10;4.60;;;;;;;11.99;100.00;100954.03;6319976;28;20051;-70
2023/09/01 00:29:34;;;;;;;6.47;4.38;;;;;;;12.02;100.00;100950.34;6328456;28;20044;-70
2023/09/01 00:32:36;;;;;;;10.02;4.90;;;;;;;11.98;100.00;100948.81;6328584;28;20105;-71
2023/09/01 00:35:37;;;;;;;8.10;4.55;;;;;;;11.97;100.00;100947.13;6328149;28;20105;-70
2023/09/01 00:38:39;;;;;;;8.27;4.88;;;;;;;11.97;100.00;100939.22;6327189;28;20059;-70
2023/09/01 00:41:42;;;;;;;13.80;5.47;;;;;;;11.96;100.00;100943.66;6319813;28;20062;-70
2023/09/01 00:44:43;;;;;;;7.22;4.57;;;;;;;11.95;100.00;100938.47;6328017;28;20052;-70
2023/09/01 00:47:45;;;;;;;9.43;5.65;;;;;;;11.97;100.00;100942.69;6328011;28;20048;-69
2023/09/01 00:50:49;;;;;;;11.52;6.25;;;;;;;11.90;100.00;100942.22;6328066;28;20048;-69
2023/09/01 00:53:51;;;;;;;9.55;5.82;;;;;;;11.89;100.00;100944.91;6312845;28;20044;-69
2023/09/01 00:56:55;;;;;;;9.50;5.38;;;;;;;11.88;100.00;100941.44;6327559;28;20048;-69
2023/09/01 00:59:57;;;;;;;11.65;5.43;;;;;;;11.84;100.00;100941.69;6327811;28;20051;-68
2023/09/01 01:03:01;;;;;;;11.25;5.20;;;;;;;11.80;100.00;100934.84;6333465;22;20441;-75
2023/09/01 01:06:14;;;;;;;11.85;6.30;;;;;;;11.82;100.00;100938.25;6276986;28;20056;-76
2023/09/01 01:09:28;;;;;;;13.07;5.13;;;;;;;11.79;100.00;100941.06;6254393;28;20057;-76
2023/09/01 01:12:37;;;;;;;11.68;4.88;;;;;;;11.77;100.00;100938.53;6260448;28;20045;-75
2023/09/01 01:15:42;;;;;;;9.48;5.80;;;;;;;11.73;100.00;100931.72;6227456;28;20053;-76
2023/09/01 01:18:46;;;;;;;11.55;6.15;;;;;;;11.69;100.00;100936.31;6228048;28;20434;-76
2023/09/01 01:21:53;;;;;;;8.85;5.00;;;;;;;11.66;100.00;100936.47;6227953;28;20465;-76
2023/09/01 01:24:55;;;;;;;6.60;4.50;;;;;;;11.65;100.00;100934.78;6227766;28;20057;-76
2023/09/01 01:27:58;;;;;;;7.95;5.38;;;;;;;11.69;100.00;100945.97;6227757;28;20462;-76
2023/09/01 01:30:59;;;;;;;7.72;4.97;;;;;;;11.71;100.00;100938.00;6227659;28;20401;-75
2023/09/01 01:34:09;;;;;;;12.52;6.68;;;;;;;11.72;100.00;100943.19;6237218;28;20133;-76
2023/09/01 01:37:18;;;;;;;10.05;6.25;;;;;;;11.72;100.00;100937.94;6238385;28;20045;-76
2023/09/01 01:40:23;;;;;;;13.32;6.80;;;;;;;11.72;100.00;100940.56;6239211;28;20048;-70
2023/09/01 01:43:28;;;;;;;11.43;7.03;;;;;;;11.71;100.00;100952.00;6240179;28;20048;-76
2023/09/01 01:46:29;;;;;;;12.38;6.65;;;;;;;11.68;100.00;100944.28;6237825;28;20061;-72
2023/09/01 01:49:31;;;;;;;11.07;6.70;;;;;;;11.65;100.00;100941.81;6240734;28;20045;-70
2023/09/01 01:52:32;;;;;;;15.20;7.80;;;;;;;11.66;100.00;100947.00;6251150;28;20058;-75
2023/09/01 01:55:35;;;;;;;13.43;7.75;;;;;;;11.59;100.00;100957.97;6251575;28;20445;-76
2023/09/01 01:58:38;;;;;;;11.20;6.60;;;;;;;11.56;100.00;100952.84;6243740;28;20056;-76
2023/09/01 02:01:39;;;;;;;9.55;5.25;;;;;;;11.56;100.00;100958.09;6246163;28;20046;-76
2023/09/01 02:04:41;;;;;;;8.98;5.70;;;;;;;11.54;100.00;100949.47;6232835;28;20109;-76
2023/09/01 02:07:42;;;;;;;13.40;7.53;;;;;;;11.49;100.00;100957.59;6246433;28;20088;-75
2023/09/01 02:10:48;;;;;;;15.95;8.30;;;;;;;11.44;100.00;100956.97;6251642;28;20045;-76
2023/09/01 02:13:49;;;;;;;13.13;7.88;;;;;;;11.40;100.00;100955.47;6251531;28;20052;-75
2023/09/01 02:16:51;;;;;;;14.77;8.40;;;;;;;11.37;100.00;100960.88;6258687;28;20057;-77
2023/09/01 02:19:52;;;;;;;13.18;8.05;;;;;;;11.33;100.00;100962.81;6269104;28;20045;-76
2023/09/01 02:22:55;;;;;;;13.27;7.38;;;;;;;11.33;100.00;100954.94;6267539;28;20575;-76
2023/09/01 02:25:58;;;;;;;10.50;6.82;;;;;;;11.33;100.00;100965.44;6270110;28;20049;-76
2023/09/01 02:28:59;;;;;;;13.18;6.90;;;;;;;11.34;100.00;100968.94;6267650;28;20049;-76
2023/09/01 02:32:00;;;;;;;15.40;8.05;;;;;;;11.30;100.00;100959.50;6275750;28;20357;-76
2023/09/01 02:35:06;;;;;;;11.73;7.22;;;;;;;11.27;100.00;100963.16;6275453;28;20053;-76
2023/09/01 02:38:07;;;;;;;15.35;7.40;;;;;;;11.26;100.00;100971.94;6275669;28;20179;-77
2023/09/01 02:41:10;;;;;;;12.13;7.72;;;;;;;11.24;100.00;100965.94;6274510;28;20048;-77
2023/09/01 02:44:11;;;;;;;16.15;8.50;;;;;;;11.24;100.00;100965.94;6267130;28;20056;-76
2023/09/01 02:47:13;;;;;;;10.40;6.65;;;;;;;11.22;100.00;100965.19;6275327;28;20055;-76
2023/09/01 02:50:14;;;;;;;9.55;6.25;;;;;;;11.21;100.00;100959.97;6275559;28;20048;-76
2023/09/01 02:53:15;;;;;;;16.05;8.43;;;;;;;11.21;100.00;100962.63;6275355;28;20044;-76
2023/09/01 02:56:19;;;;;;;14.07;8.38;;;;;;;11.17;100.00;100965.41;6274283;28;20354;-77
2023/09/01 02:59:20;;;;;;;12.07;6.97;;;;;;;11.14;100.00;100959.47;6264337;28;20453;-76
2023/09/01 03:02:22;;;;;;;13.93;9.05;;;;;;;11.13;100.00;100966.50;6274606;28;20052;-76
2023/09/01 03:05:24;;;;;;;17.52;8.93;;;;;;;11.08;100.00;100968.53;6266909;28;20051;-76
2023/09/01 03:08:26;;;;;;;15.13;8.80;;;;;;;11.06;100.00;100973.00;6275195;28;20452;-76
2023/09/01 03:11:29;;;;;;;15.73;8.27;;;;;;;11.06;100.00;100964.28;6275404;28;20142;-76
2023/09/01 03:14:31;;;;;;;10.50;6.53;;;;;;;11.06;100.00;100961.63;6275002;28;20048;-76
2023/09/01 03:17:32;;;;;;;17.27;8.95;;;;;;;11.02;100.00;100958.31;6275223;28;20053;-76
2023/09/01 03:20:34;;;;;;;19.10;9.48;;;;;;;11.02;100.00;100963.56;6275049;28;20357;-76
2023/09/01 03:23:36;;;;;;;15.45;9.35;;;;;;;11.00;100.00;100968.06;6274873;28;20061;-76
2023/09/01 03:26:38;;;;;;;18.33;8.85;;;;;;;10.98;100.00;100969.06;6274627;28;20476;-76
2023/09/01 03:29:42;;;;;;;17.02;9.93;;;;;;;10.96;100.00;100965.69;6274991;28;20049;-76
2023/09/01 03:32:44;;;;;;;14.25;8.50;;;;;;;10.98;100.00;100969.06;6274707;28;20140;-76
2023/09/01 03:35:45;;;;;;;18.55;7.55;;;;;;;11.01;100.00;100972.41;6274674;28;20060;-76
2023/09/01 03:38:48;;;;;;;14.70;9.55;;;;;;;11.01;100.00;100971.56;6276450;28;20048;-76
2023/09/01 03:41:51;;;;;;;15.43;9.18;;;;;;;11.00;100.00;100970.69;6279562;28;20049;-76
2023/09/01 03:44:53;;;;;;;16.70;9.07;;;;;;;10.99;100.00;100974.28;6279514;28;20048;-76
2023/09/01 03:47:54;;;;;;;17.80;9.52;;;;;;;10.99;100.00;100973.38;6279541;28;20060;-76
2023/09/01 03:51:06;;;;;;;13.90;8.18;;;;;;;10.99;100.00;100974.28;6279784;28;20049;-76
2023/09/01 03:54:08;;;;;;;22.27;8.98;;;;;;;11.02;100.00;100978.50;6279256;28;20068;-76
2023/09/01 03:57:10;;;;;;;17.52;10.18;;;;;;;11.00;100.00;100978.59;6279289;28;20060;-76
2023/09/01 04:00:13;;;;;;;16.45;9.75;;;;;;;10.99;100.00;100970.75;6279229;28;20136;-76
2023/09/01 04:03:14;;;;;;;17.65;9.02;;;;;;;11.00;100.00;100973.34;6278905;28;20052;-76
2023/09/01 04:06:16;;;;;;;26.13;11.18;;;;;;;10.98;100.00;100963.81;6279045;28;20056;-77
2023/09/01 04:09:19;;;;;;;22.10;10.25;;;;;;;10.95;100.00;100970.09;6279058;28;20049;-76
2023/09/01 04:12:21;;;;;;;16.58;9.13;;;;;;;10.92;100.00;100965.81;6278914;28;20430;-76
2023/09/01 04:15:23;;;;;;;17.23;9.20;;;;;;;10.90;100.00;100966.81;6278380;28;20049;-76
2023/09/01 04:18:24;;;;;;;20.10;9.98;;;;;;;10.89;100.00;100970.38;6278843;28;20049;-76
2023/09/01 04:21:26;;;;;;;18.65;10.10;;;;;;;10.87;100.00;100975.72;6261753;28;20053;-76
2023/09/01 04:24:27;;;;;;;18.17;9.30;;;;;;;10.91;100.00;100972.03;6270190;28;20361;-75
2023/09/01 04:27:30;;;;;;;18.27;10.43;;;;;;;10.90;100.00;100977.34;6270753;28;20056;-75
2023/09/01 04:30:31;;;;;;;14.40;8.70;;;;;;;10.91;100.00;100987.78;6270452;28;20048;-75
2023/09/01 04:33:33;;;;;;;16.08;9.63;;;;;;;10.92;100.00;100984.22;6278530;28;20052;-76
2023/09/01 04:36:34;;;;;;;21.00;10.57;;;;;;;10.93;100.00;100985.94;6274711;28;20053;-75
2023/09/01 04:39:36;;;;;;;19.67;10.85;;;;;;;10.93;100.00;100983.31;6269193;28;20446;-75
2023/09/01 04:42:39;;;;;;;16.70;9.52;;;;;;;10.95;100.00;100983.25;6278194;28;20064;-76
2023/09/01 04:45:40;;;;;;;16.65;9.55;;;;;;;10.93;100.00;100983.31;6277859;28;20076;-76
2023/09/01 04:48:42;;;;;;;18.60;9.90;;;;;;;10.93;100.00;100985.94;6278195;28;20053;-75
2023/09/01 04:51:43;;;;;;;17.70;10.07;;;;;;;10.94;100.00;100992.03;6276955;28;20056;-75
2023/09/01 04:54:44;;;;;;;17.50;9.75;;;;;;;10.96;100.00;100994.59;6277648;28;20055;-75
2023/09/01 04:57:48;;;;;;;16.73;9.90;;;;;;;10.98;100.00;100992.72;6277913;28;20453;-77
2023/09/01 05:00:51;;;;;;;23.88;12.43;;;;;;;10.97;100.00;100989.25;6249327;28;20449;-72
2023/09/01 05:03:52;;;;;;;20.73;11.07;;;;;;;10.96;100.00;100995.44;6251104;28;20042;-72
2023/09/01 05:06:54;;;;;;;20.20;10.95;;;;;;;10.99;100.00;100995.31;6277429;28;20472;-71
2023/09/01 05:09:57;;;;;;;21.23;12.05;;;;;;;11.01;100.00;100993.44;6254458;28;20045;-71
2023/09/01 05:13:00;;;;;;;23.83;11.45;;;;;;;11.04;100.00;101002.97;6247538;28;20105;-76
2023/09/01 05:16:02;;;;;;;17.00;9.48;;;;;;;11.08;100.00;101000.09;6241305;28;20049;-72
2023/09/01 05:19:04;;;;;;;18.35;10.35;;;;;;;11.11;100.00;101005.19;6239605;28;20087;-75
2023/09/01 05:22:05;;;;;;;18.20;10.38;;;;;;;11.16;100.00;101004.94;6240561;28;20045;-76
2023/09/01 05:25:08;;;;;;;16.17;8.77;;;;;;;11.19;100.00;100999.53;6238805;28;20350;-76
2023/09/01 05:28:10;;;;;;;23.65;11.27;;;;;;;11.19;100.00;100999.53;6240903;28;20067;-75
2023/09/01 05:31:12;;;;;;;22.35;10.65;;;;;;;11.25;100.00;101004.47;6241207;28;20042;-76
2023/09/01 05:34:13;;;;;;;18.17;11.40;;;;;;;11.30;100.00;101007.69;6238573;28;20050;-75
2023/09/01 05:37:15;;;;;;;18.52;11.02;;;;;;;11.35;100.00;101015.34;6240054;28;20049;-76
2023/09/01 05:40:17;;;;;;;25.27;13.18;;;;;;;11.38;100.00;101015.19;6238699;28;20041;-76
2023/09/01 05:43:20;;;;;;;15.98;9.25;;;;;;;11.41;100.00;101018.53;6239538;28;20053;-75
2023/09/01 05:46:21;;;;;;;16.45;9.13;;;;;;;11.43;100.00;101027.19;6239195;28;20057;-72
2023/09/01 05:49:24;;;;;;;17.77;9.35;;;;;;;11.48;100.00;101021.69;6237470;28;20045;-72
2023/09/01 05:52:25;;;;;;;19.05;9.18;;;;;;;11.51;100.00;101024.16;6248794;28;20085;-72
2023/09/01 05:55:29;;;;;;;15.82;9.25;;;;;;;11.55;100.00;101024.84;6251443;28;20345;-76
2023/09/01 05:58:33;;;;;;;18.02;10.02;;;;;;;11.59;100.00;101024.59;6251600;28;20049;-72
2023/09/01 06:01:36;;;;;;;15.23;9.57;;;;;;;11.62;100.00;101029.69;6258029;28;20056;-72
2023/09/01 06:04:37;;;;;;;18.15;9.25;;;;;;;11.66;100.00;101033.00;6266850;28;20059;-72
2023/09/01 06:07:38;;;;;;;25.17;12.07;;;;;;;11.74;100.00;101037.88;6275970;28;20051;-72
2023/09/01 06:10:40;;;;;;;23.20;11.13;;;;;;;11.80;100.00;101040.19;6276282;28;20154;-72
2023/09/01 06:13:43;;;;;;;21.40;10.95;;;;;;;11.87;100.00;101045.06;6276076;28;20049;-72
2023/09/01 06:16:47;;;;;;;18.75;10.93;;;;;;;11.97;100.00;101048.06;6275862;28;20076;-73
2023/09/01 06:19:48;;;;;;;20.20;10.75;;;;;;;12.04;100.00;101046.81;6259609;28;20049;-73
2023/09/01 06:22:53;;;;;;;25.38;12.10;;;;;;;12.11;100.00;101053.41;6265514;28;20056;-76
2023/09/01 06:25:55;;;;;;;25.70;10.50;;;;;;;12.19;100.00;101045.09;6270022;28;20097;-76
2023/09/01 06:28:57;;;;;;;18.40;10.23;;;;;;;12.28;100.00;101046.38;6267320;28;20051;-76
2023/09/01 06:31:59;;;;;;;12.70;7.85;;;;;;;12.37;100.00;101051.13;6275793;28;20045;-77
2023/09/01 06:35:01;;;;;;;20.13;11.60;;;;;;;12.46;100.00;101052.41;6274719;28;20360;-77
2023/09/01 06:38:05;;;;;;;18.42;9.95;;;;;;;12.53;100.00;101048.47;6259378;28;20373;-76
2023/09/01 06:41:07;;;;;;;16.50;9.90;;;;;;;12.64;100.00;101040.81;6266156;28;20452;-77
2023/09/01 06:44:09;;;;;;;20.83;9.50;;;;;;;12.70;100.00;101046.56;6268919;28;20377;-77
2023/09/01 06:47:11;;;;;;;15.48;8.65;;;;;;;12.80;100.00;101056.59;6246468;28;20049;-77
2023/09/01 06:50:12;;;;;;;13.32;7.40;;;;;;;12.87;100.00;101050.88;6247222;28;20052;-77
2023/09/01 06:53:14;;;;;;;20.17;10.98;;;;;;;12.94;100.00;101054.88;6263217;28;20057;-76
2023/09/01 06:56:15;;;;;;;21.52;10.00;;;;;;;12.99;100.00;101059.88;6257422;28;20067;-76
2023/09/01 06:59:18;;;;;;;17.83;9.80;;;;;;;13.06;100.00;101055.09;6262955;28;20048;-76
2023/09/01 07:02:19;;;;;;;15.73;8.35;;;;;;;13.11;100.00;101055.66;6261920;28;20083;-77
2023/09/01 07:05:21;;;;;;;17.98;9.80;;;;;;;13.21;100.00;101060.28;6314850;22;20052;-73
2023/09/01 07:08:22;;;;;;;13.70;8.88;;;;;;;13.26;100.00;101064.47;6294197;28;20310;-74
2023/09/01 07:11:24;;;;;;;17.85;9.43;;;;;;;13.29;100.00;101069.59;6282235;28;20049;-75
2023/09/01 07:14:27;;;;;;;15.95;9.13;;;;;;;13.26;100.00;101070.63;6294587;28;20056;-76
2023/09/01 07:17:28;;;;;;;22.38;9.75;;;;;;;13.25;100.00;101057.50;6302300;28;20060;-75
2023/09/01 07:20:30;;;;;;;20.92;10.77;;;;;;;13.33;100.00;101055.28;6299753;28;20577;-75
2023/09/01 07:23:31;;;;;;;26.30;10.88;;;;;;;13.39;100.00;101062.81;6302793;28;20053;-74
2023/09/01 07:26:32;;;;;;;19.00;10.00;;;;;;;13.45;100.00;101062.47;6301197;28;20044;-73
2023/09/01 07:29:35;;;;;;;20.30;10.07;;;;;;;13.55;100.00;101062.75;6300817;28;20154;-73
2023/09/01 07:32:37;;;;;;;21.70;10.68;;;;;;;13.64;100.00;101067.47;6300553;28;20057;-73
2023/09/01 07:35:38;;;;;;;30.50;11.48;;;;;;;13.79;100.00;101070.97;6304135;28;20060;-74
2023/09/01 07:38:39;;;;;;;62.95;19.70;;;;;;;13.84;100.00;101066.25;6304389;28;20052;-73
2023/09/01 07:41:41;;;;;;;57.83;20.00;;;;;;;13.92;100.00;101066.63;6304365;28;20041;-73
2023/09/01 07:44:46;;;;;;;49.05;19.25;;;;;;;13.92;100.00;101061.34;6303420;28;20052;-73
2023/09/01 07:47:48;;;;;;;21.15;11.27;;;;;;;13.87;100.00;101064.28;6304333;28;20052;-74
2023/09/01 07:50:49;;;;;;;20.63;10.82;;;;;;;13.96;100.00;101068.13;6304175;28;20049;-73
2023/09/01 07:53:51;;;;;;;19.48;10.27;;;;;;;14.04;100.00;101070.31;6304200;28;20055;-73
2023/09/01 07:56:52;;;;;;;18.33;11.18;;;;;;;14.11;100.00;101068.97;6303840;28;20448;-73
2023/09/01 07:59:55;;;;;;;21.02;11.10;;;;;;;14.19;100.00;101064.03;6303921;28;20044;-74
2023/09/01 08:02:56;;;;;;;22.80;11.57;;;;;;;14.24;100.00;101061.94;6303618;28;20052;-74
2023/09/01 08:05:59;;;;;;;21.17;11.55;;;;;;;14.31;100.00;101065.91;6303664;28;20105;-74
2023/09/01 08:09:00;;;;;;;37.22;13.27;;;;;;;14.39;100.00;101065.41;6303681;28;20356;-73
2023/09/01 08:12:02;;;;;;;20.02;11.63;;;;;;;14.48;100.00;101067.50;6303390;28;20056;-74
2023/09/01 08:15:06;;;;;;;25.02;11.20;;;;;;;14.54;100.00;101066.28;6303391;28;20060;-72
2023/09/01 08:18:07;;;;;;;19.83;10.52;;;;;;;14.61;100.00;101064.91;6303439;28;20059;-74
2023/09/01 08:21:09;;;;;;;26.38;11.57;;;;;;;14.68;100.00;101066.22;6303309;28;20451;-73
2023/09/01 08:24:11;;;;;;;17.80;9.55;;;;;;;14.77;100.00;101062.97;6302882;28;20441;-74
2023/09/01 08:27:12;;;;;;;18.65;10.85;;;;;;;14.82;100.00;101057.38;6303199;28;20052;-74
2023/09/01 08:30:15;;;;;;;16.85;9.48;;;;;;;14.89;100.00;101061.28;6303147;28;20064;-73
2023/09/01 08:33:17;;;;;;;22.38;10.30;;;;;;;14.93;100.00;101065.44;6303215;28;20057;-74
2023/09/01 08:36:20;;;;;;;18.17;9.15;;;;;;;15.02;100.00;101066.63;6302780;28;20432;-74
2023/09/01 08:39:21;;;;;;;18.27;9.65;;;;;;;15.09;100.00;101058.19;6303399;28;20068;-74
2023/09/01 08:42:23;;;;;;;16.73;9.32;;;;;;;15.23;100.00;101062.53;6303135;28;20056;-74
2023/09/01 08:45:30;;;;;;;16.77;8.02;;;;;;;15.33;100.00;101053.00;6302792;28;20051;-74
2023/09/01 08:48:31;;;;;;;21.92;9.95;;;;;;;15.39;100.00;101057.03;6303184;28;20133;-74
2023/09/01 08:51:33;;;;;;;18.55;10.02;;;;;;;15.46;100.00;101053.03;6302931;28;20044;-74
2023/09/01 08:54:37;;;;;;;16.85;8.70;;;;;;;15.61;100.00;101048.47;6302898;28;20049;-74
2023/09/01 08:57:39;;;;;;;16.15;7.45;;;;;;;15.73;100.00;101043.19;6302631;28;20088;-74
2023/09/01 09:00:42;;;;;;;17.88;9.13;;;;;;;15.87;100.00;101062.56;6302761;28;20051;-74
2023/09/01 09:03:44;;;;;;;14.23;7.00;;;;;;;15.97;100.00;101050.34;6302388;28;20059;-74
2023/09/01 09:06:46;;;;;;;17.33;8.77;;;;;;;16.03;100.00;101046.41;6302529;28;20049;-75
2023/09/01 09:09:54;;;;;;;13.88;8.00;;;;;;;16.06;100.00;101048.84;6302486;28;20052;-74
2023/09/01 09:12:56;;;;;;;13.57;7.47;;;;;;;16.19;100.00;101047.88;6302418;28;20048;-75
2023/09/01 09:16:09;;;;;;;14.73;6.18;;;;;;;16.36;100.00;101049.31;6302132;28;20055;-74
2023/09/01 09:19:16;;;;;;;11.80;6.28;;;;;;;16.47;100.00;101054.66;6302506;28;20055;-74
2023/09/01 09:22:17;;;;;;;14.15;6.90;;;;;;;16.45;100.00;101056.59;6300764;28;20052;-75
2023/09/01 09:25:27;;;;;;;13.43;7.60;;;;;;;16.58;100.00;101063.63;6300357;28;20052;-75
2023/09/01 09:28:29;;;;;;;18.10;6.18;;;;;;;16.69;100.00;101058.41;6302122;28;20055;-75
2023/09/01 09:31:33;;;;;;;14.85;7.53;;;;;;;16.83;100.00;101049.44;6301752;28;20048;-75
2023/09/01 09:34:35;;;;;;;10.20;5.82;;;;;;;16.89;100.00;101051.63;6301067;28;20347;-75
2023/09/01 09:37:38;;;;;;;9.35;5.38;;;;;;;16.89;100.00;101060.44;6300544;28;20364;-74
2023/09/01 09:40:39;;;;;;;12.02;6.30;;;;;;;16.92;100.00;101056.72;6293870;28;20048;-75
2023/09/01 09:43:45;;;;;;;11.15;5.50;;;;;;;16.94;100.00;101053.00;6301073;28;20048;-75
2023/09/01 09:46:49;;;;;;;12.20;5.53;;;;;;;16.86;100.00;101052.72;6301102;28;20048;-76
2023/09/01 09:49:50;;;;;;;16.95;4.95;;;;;;;16.99;100.00;101055.31;6278496;28;20087;-75
2023/09/01 09:52:57;;;;;;;15.15;4.85;;;;;;;17.17;100.00;101064.53;6301225;28;20045;-76
2023/09/01 09:56:01;;;;;;;12.35;5.32;;;;;;;17.14;100.00;101063.91;6300661;28;20045;-76
2023/09/01 09:59:04;;;;;;;11.50;4.88;;;;;;;17.12;100.00;101073.78;6299783;28;20048;-75
2023/09/01 10:02:18;;;;;;;8.95;4.38;;;;;;;17.20;100.00;101066.09;6292264;28;20043;-75
2023/09/01 10:05:22;;;;;;;9.90;4.43;;;;;;;17.23;100.00;101069.38;6296642;28;20044;-76
2023/09/01 10:08:24;;;;;;;9.05;3.90;;;;;;;17.21;100.00;101060.69;6292321;28;20045;-74
2023/09/01 10:11:29;;;;;;;11.95;4.57;;;;;;;17.41;100.00;101069.78;6300866;28;20452;-74
2023/09/01 10:14:31;;;;;;;9.55;4.30;;;;;;;17.51;100.00;101072.56;6294542;28;20356;-75
2023/09/01 10:17:35;;;;;;;10.13;4.00;;;;;;;17.54;100.00;101074.16;6297221;28;20365;-74
2023/09/01 10:20:37;;;;;;;7.63;4.68;;;;;;;17.60;100.00;101078.97;6298756;28;20045;-74
2023/09/01 10:23:39;;;;;;;12.50;5.10;;;;;;;17.63;100.00;101071.63;6300568;28;20123;-74
2023/09/01 10:26:41;;;;;;;8.90;4.25;;;;;;;17.68;100.00;101068.59;6299996;28;20048;-75
2023/09/01 10:29:43;;;;;;;9.05;4.72;;;;;;;17.71;100.00;101057.72;6300759;28;20044;-74
2023/09/01 10:32:45;;;;;;;9.07;4.20;;;;;;;17.86;100.00;101069.84;6300342;28;20075;-73
2023/09/01 10:35:50;;;;;;;10.38;3.70;;;;;;;17.85;100.00;101083.25;6299965;28;20453;-74
2023/09/01 10:38:52;;;;;;;5.88;3.05;;;;;;;18.04;100.00;101080.84;6292351;28;20482;-73
2023/09/01 10:41:57;;;;;;;7.28;3.08;;;;;;;18.06;100.00;101081.56;6300108;28;20052;-74
2023/09/01 10:45:13;;;;;;;5.78;2.90;;;;;;;17.89;100.00;101093.53;6299915;28;20092;-74
2023/09/01 10:48:47;;;;;;;9.40;3.60;;;;;;;17.98;100.00;101095.47;6300012;28;20372;-73
2023/09/01 10:51:49;;;;;;;5.78;2.47;;;;;;;18.05;100.00;101092.34;6300242;28;20041;-75
2023/09/01 10:55:04;;;;;;;6.07;3.60;;;;;;;18.04;100.00;101096.81;6299846;28;20432;-74
2023/09/01 10:58:09;;;;;;;10.73;3.13;;;;;;;18.21;100.00;101095.44;6299958;28;20050;-75
2023/09/01 11:01:31;;;;;;;5.55;3.08;;;;;;;18.23;100.00;101089.03;6300370;28;20471;-74
2023/09/01 11:04:34;;;;;;;11.32;3.88;;;;;;;18.20;100.00;101091.94;6299879;28;20059;-75
2023/09/01 11:08:10;;;;;;;6.80;3.10;;;;;;;18.14;100.00;101091.59;6299837;28;20055;-75
2023/09/01 11:11:11;;;;;;;9.20;3.90;;;;;;;18.14;100.00;101089.78;6299910;28;20055;-75
2023/09/01 11:14:12;;;;;;;5.10;2.90;;;;;;;18.17;100.00;101086.03;6299973;28;20052;-76
2023/09/01 11:17:14;;;;;;;6.93;2.63;;;;;;;18.27;100.00;101081.66;6299550;28;20062;-75
2023/09/01 11:20:20;;;;;;;6.88;2.70;;;;;;;18.38;100.00;101086.13;6300009;28;20052;-73
2023/09/01 11:23:23;;;;;;;6.70;2.08;;;;;;;18.53;100.00;101084.91;6294560;28;20197;-73
2023/09/01 11:26:25;;;;;;;6.07;2.58;;;;;;;18.57;100.00;101088.13;6299394;28;20048;-74
2023/09/01 11:29:27;;;;;;;8.13;2.90;;;;;;;18.44;100.00;101081.16;6299088;28;20075;-74
2023/09/01 11:32:28;;;;;;;5.07;2.30;;;;;;;18.38;100.00;101092.28;6298858;28;20052;-73
2023/09/01 11:35:31;;;;;;;6.20;2.88;;;;;;;18.38;100.00;101092.28;6299154;28;20059;-72
2023/09/01 11:38:34;;;;;;;6.68;2.53;;;;;;;18.44;100.00;101094.47;6299551;28;20044;-73
2023/09/01 11:41:36;;;;;;;6.10;2.60;;;;;;;18.37;100.00;101087.09;6299133;28;20383;-72
2023/09/01 11:44:37;;;;;;;6.75;1.90;;;;;;;18.37;100.00;101087.94;6299191;28;20048;-72
2023/09/01 11:47:39;;;;;;;7.28;2.67;;;;;;;18.36;100.00;101080.09;6298302;28;20088;-71
2023/09/01 11:50:45;;;;;;;5.80;2.17;;;;;;;18.35;100.00;101081.03;6297048;28;20049;-73
2023/09/01 11:53:52;;;;;;;9.85;2.80;;;;;;;18.30;100.00;101081.41;6298795;28;20455;-73
2023/09/01 11:56:54;;;;;;;4.88;2.22;;;;;;;18.36;100.00;101083.59;6299122;28;20064;-75
2023/09/01 11:59:55;;;;;;;5.72;2.30;;;;;;;18.40;100.00;101084.19;6301196;28;20052;-73
2023/09/01 12:02:57;;;;;;;5.50;2.97;;;;;;;18.47;100.00;101086.22;6303386;28;20102;-73
2023/09/01 12:06:00;;;;;;;5.82;2.28;;;;;;;18.60;100.00;101082.56;6303538;28;20051;-75
2023/09/01 12:09:11;;;;;;;9.23;3.40;;;;;;;18.64;100.00;101084.00;6301398;28;20049;-73
2023/09/01 12:12:13;;;;;;;4.97;2.63;;;;;;;18.71;100.00;101083.41;6302673;28;20455;-73
2023/09/01 12:15:14;;;;;;;12.90;2.30;;;;;;;18.70;100.00;101083.53;6288551;28;20052;-73
2023/09/01 12:18:30;;;;;;;5.78;2.72;;;;;;;18.73;100.00;101085.94;6302807;28;20384;-75
2023/09/01 12:21:33;;;;;;;9.55;2.85;;;;;;;18.65;100.00;101083.88;6302305;28;20048;-75
2023/09/01 12:24:36;;;;;;;6.97;3.38;;;;;;;18.56;100.00;101078.47;6303335;28;20059;-76
2023/09/01 12:27:38;;;;;;;6.60;2.95;;;;;;;18.51;100.00;101074.34;6302926;28;20550;-76
2023/09/01 12:30:39;;;;;;;8.05;3.08;;;;;;;18.49;100.00;101072.81;6303371;28;20048;-75
2023/09/01 12:33:41;;;;;;;3.13;2.08;;;;;;;18.52;100.00;101075.19;6302969;28;20049;-76
2023/09/01 12:36:44;;;;;;;6.43;2.25;;;;;;;18.59;100.00;101075.56;6300479;28;20042;-76
2023/09/01 12:39:45;;;;;;;7.45;2.58;;;;;;;18.57;100.00;101065.00;6296902;28;20056;-76
2023/09/01 12:42:46;;;;;;;8.43;3.35;;;;;;;18.53;100.00;101074.25;6295063;28;20051;-75
2023/09/01 12:45:48;;;;;;;3.53;2.33;;;;;;;18.56;100.00;101067.81;6293521;28;20500;-73
2023/09/01 12:48:49;;;;;;;7.68;2.85;;;;;;;18.55;100.00;101072.28;6296727;28;20051;-76
2023/09/01 12:51:52;;;;;;;6.45;2.45;;;;;;;18.58;100.00;101068.56;6294185;28;20056;-75
2023/09/01 12:54:53;;;;;;;3.38;2.38;;;;;;;18.67;100.00;101070.47;6279612;28;20053;-75
2023/09/01 12:57:56;;;;;;;8.10;2.95;;;;;;;18.68;100.00;101066.81;6302706;28;20052;-75
2023/09/01 13:01:01;;;;;;;8.82;2.92;;;;;;;18.71;100.00;101070.09;6302599;28;20048;-76
2023/09/01 13:04:03;;;;;;;9.13;2.97;;;;;;;18.71;100.00;101072.78;6302451;28;20467;-75
2023/09/01 13:07:07;;;;;;;4.35;2.60;;;;;;;18.69;100.00;101072.03;6302477;28;20060;-76
2023/09/01 13:10:09;;;;;;;3.40;2.20;;;;;;;18.74;100.00;101072.50;6302257;28;20478;-75
2023/09/01 13:13:10;;;;;;;4.25;2.17;;;;;;;18.73;100.00;101076.13;6301614;28;20048;-76
2023/09/01 13:16:12;;;;;;;5.15;2.45;;;;;;;18.67;100.00;101071.28;6301977;28;20052;-75
2023/09/01 13:19:13;;;;;;;8.43;2.70;;;;;;;18.68;100.00;101075.66;6302221;28;20056;-75
2023/09/01 13:22:16;;;;;;;8.88;3.00;;;;;;;18.63;100.00;101080.50;6302135;28;20052;-75
2023/09/01 13:25:18;;;;;;;4.50;2.15;;;;;;;18.63;100.00;101075.19;6301832;28;20463;-75
2023/09/01 13:28:19;;;;;;;4.75;2.20;;;;;;;18.65;100.00;101083.88;6300880;28;20074;-76
2023/09/01 13:31:20;;;;;;;5.97;2.45;;;;;;;18.56;100.00;101070.47;6301657;28;20060;-76
2023/09/01 13:34:22;;;;;;;5.10;2.63;;;;;;;18.57;100.00;101080.13;6301624;28;20056;-76
2023/09/01 13:37:25;;;;;;;5.90;2.38;;;;;;;18.46;100.00;101073.88;6301457;28;20051;-74
2023/09/01 13:40:27;;;;;;;8.05;2.05;;;;;;;18.46;100.00;101078.38;6302082;28;20044;-75
2023/09/01 13:43:28;;;;;;;5.32;1.98;;;;;;;18.37;100.00;101071.97;6301422;28;20048;-74
2023/09/01 13:46:31;;;;;;;9.30;3.00;;;;;;;18.32;100.00;101074.16;6301369;28;20060;-75
2023/09/01 13:49:32;;;;;;;7.07;1.90;;;;;;;18.33;100.00;101075.00;6301469;28;20294;-74
2023/09/01 13:52:35;;;;;;;8.98;3.78;;;;;;;18.28;100.00;101080.69;6301505;28;20048;-75